sensor_id;sensor_type;location;lat;lon;timestamp;P1;durP1;ratioP1;P2;durP2;ratioP2
29120;SDS011;16191;49.548;8.658;2023-05-15T00:02:07;2.42;;;2.20;;
29120;SDS011;16191;49.548;8.658;2023-05-15T00:04:34;4.82;;;1.80;;
29120;SDS011;16191;49.548;8.658;2023-05-15T00:07:01;3.35;;;2.40;;
29120;SDS011;16191;49.548;8.658;2023-05-15T00:09:27;2.83;;;1.95;;
29120;SDS011;16191;49.548;8.658;2023-05-15T00:11:54;2.75;;;1.98;;
29120;SDS011;16191;49.548;8.658;2023-05-15T00:14:20;3.38;;;2.55;;
29120;SDS011;16191;49.548;8.658;2023-05-15T00:16:47;2.60;;;1.90;;
29120;SDS011;16191;49.548;8.658;2023-05-15T00:19:13;3.83;;;1.92;;
29120;SDS011;16191;49.548;8.658;2023-05-15T00:21:40;2.40;;;2.20;;
29120;SDS011;16191;49.548;8.658;2023-05-15T00:24:07;3.80;;;2.65;;
29120;SDS011;16191;49.548;8.658;2023-05-15T00:26:33;8.05;;;3.35;;
29120;SDS011;16191;49.548;8.658;2023-05-15T00:29:00;5.70;;;3.28;;
29120;SDS011;16191;49.548;8.658;2023-05-15T00:31:26;5.15;;;3.10;;
29120;SDS011;16191;49.548;8.658;2023-05-15T00:33:53;3.30;;;3.00;;
29120;SDS011;16191;49.548;8.658;2023-05-15T00:36:20;3.58;;;3.17;;
29120;SDS011;16191;49.548;8.658;2023-05-15T00:38:49;6.45;;;3.47;;
29120;SDS011;16191;49.548;8.658;2023-05-15T00:41:16;3.83;;;2.80;;
29120;SDS011;16191;49.548;8.658;2023-05-15T00:43:43;3.17;;;2.88;;
29120;SDS011;16191;49.548;8.658;2023-05-15T00:46:11;4.07;;;2.47;;
29120;SDS011;16191;49.548;8.658;2023-05-15T00:48:38;6.70;;;2.75;;
29120;SDS011;16191;49.548;8.658;2023-05-15T00:51:06;7.25;;;2.53;;
29120;SDS011;16191;49.548;8.658;2023-05-15T00:53:34;3.00;;;2.47;;
29120;SDS011;16191;49.548;8.658;2023-05-15T00:56:00;5.60;;;2.65;;
29120;SDS011;16191;49.548;8.658;2023-05-15T00:58:28;7.35;;;2.85;;
29120;SDS011;16191;49.548;8.658;2023-05-15T01:00:56;3.50;;;2.40;;
29120;SDS011;16191;49.548;8.658;2023-05-15T01:03:22;5.00;;;2.78;;
29120;SDS011;16191;49.548;8.658;2023-05-15T01:05:49;4.60;;;2.67;;
29120;SDS011;16191;49.548;8.658;2023-05-15T01:08:25;4.10;;;2.90;;
29120;SDS011;16191;49.548;8.658;2023-05-15T01:10:59;4.20;;;3.05;;
29120;SDS011;16191;49.548;8.658;2023-05-15T01:13:27;2.92;;;2.47;;
29120;SDS011;16191;49.548;8.658;2023-05-15T01:15:53;6.60;;;2.90;;
29120;SDS011;16191;49.548;8.658;2023-05-15T01:18:20;3.40;;;3.00;;
29120;SDS011;16191;49.548;8.658;2023-05-15T01:30:21;5.35;;;2.78;;
29120;SDS011;16191;49.548;8.658;2023-05-15T01:33:27;5.85;;;3.05;;
29120;SDS011;16191;49.548;8.658;2023-05-15T01:39:19;5.10;;;2.85;;
29120;SDS011;16191;49.548;8.658;2023-05-15T01:44:37;4.03;;;2.80;;
29120;SDS011;16191;49.548;8.658;2023-05-15T01:47:09;6.53;;;2.60;;
29120;SDS011;16191;49.548;8.658;2023-05-15T01:49:39;3.92;;;2.88;;
29120;SDS011;16191;49.548;8.658;2023-05-15T01:52:18;4.07;;;2.60;;
29120;SDS011;16191;49.548;8.658;2023-05-15T01:54:50;5.47;;;2.83;;
29120;SDS011;16191;49.548;8.658;2023-05-15T01:57:19;4.07;;;2.60;;
29120;SDS011;16191;49.548;8.658;2023-05-15T01:59:48;3.63;;;2.70;;
29120;SDS011;16191;49.548;8.658;2023-05-15T02:02:16;3.47;;;2.53;;
29120;SDS011;16191;49.548;8.658;2023-05-15T02:04:44;3.95;;;2.30;;
29120;SDS011;16191;49.548;8.658;2023-05-15T02:07:12;4.53;;;2.20;;
29120;SDS011;16191;49.548;8.658;2023-05-15T02:09:40;4.22;;;2.75;;
29120;SDS011;16191;49.548;8.658;2023-05-15T02:12:08;5.82;;;2.22;;
29120;SDS011;16191;49.548;8.658;2023-05-15T02:14:36;3.90;;;2.50;;
29120;SDS011;16191;49.548;8.658;2023-05-15T02:17:06;7.38;;;2.85;;
29120;SDS011;16191;49.548;8.658;2023-05-15T02:19:32;3.90;;;2.45;;
29120;SDS011;16191;49.548;8.658;2023-05-15T02:22:01;2.72;;;2.50;;
29120;SDS011;16191;49.548;8.658;2023-05-15T02:24:27;2.90;;;2.30;;
29120;SDS011;16191;49.548;8.658;2023-05-15T02:32:21;5.20;;;3.05;;
29120;SDS011;16191;49.548;8.658;2023-05-15T02:37:34;5.60;;;2.50;;
29120;SDS011;16191;49.548;8.658;2023-05-15T02:40:08;4.38;;;2.80;;
29120;SDS011;16191;49.548;8.658;2023-05-15T02:42:38;2.90;;;2.55;;
29120;SDS011;16191;49.548;8.658;2023-05-15T02:45:07;6.65;;;2.78;;
29120;SDS011;16191;49.548;8.658;2023-05-15T02:47:35;3.33;;;2.35;;
29120;SDS011;16191;49.548;8.658;2023-05-15T02:50:03;6.22;;;2.40;;
29120;SDS011;16191;49.548;8.658;2023-05-15T02:52:34;4.10;;;3.25;;
29120;SDS011;16191;49.548;8.658;2023-05-15T02:55:01;6.53;;;2.80;;
29120;SDS011;16191;49.548;8.658;2023-05-15T02:57:28;5.43;;;2.90;;
29120;SDS011;16191;49.548;8.658;2023-05-15T02:59:54;3.38;;;2.53;;
29120;SDS011;16191;49.548;8.658;2023-05-15T03:02:22;3.08;;;2.78;;
29120;SDS011;16191;49.548;8.658;2023-05-15T03:04:49;4.25;;;2.55;;
29120;SDS011;16191;49.548;8.658;2023-05-15T03:07:15;3.17;;;2.55;;
29120;SDS011;16191;49.548;8.658;2023-05-15T03:09:42;3.08;;;2.72;;
29120;SDS011;16191;49.548;8.658;2023-05-15T03:12:09;2.95;;;2.40;;
29120;SDS011;16191;49.548;8.658;2023-05-15T03:14:36;5.53;;;2.80;;
29120;SDS011;16191;49.548;8.658;2023-05-15T03:17:02;2.50;;;2.10;;
29120;SDS011;16191;49.548;8.658;2023-05-15T03:19:29;5.28;;;2.60;;
29120;SDS011;16191;49.548;8.658;2023-05-15T03:21:56;3.80;;;2.88;;
29120;SDS011;16191;49.548;8.658;2023-05-15T03:24:23;3.05;;;2.40;;
29120;SDS011;16191;49.548;8.658;2023-05-15T03:26:49;4.30;;;3.13;;
29120;SDS011;16191;49.548;8.658;2023-05-15T03:29:16;7.80;;;2.42;;
29120;SDS011;16191;49.548;8.658;2023-05-15T03:31:42;4.18;;;3.47;;
29120;SDS011;16191;49.548;8.658;2023-05-15T03:34:09;4.45;;;3.10;;
29120;SDS011;16191;49.548;8.658;2023-05-15T03:36:35;4.78;;;2.95;;
29120;SDS011;16191;49.548;8.658;2023-05-15T03:39:03;6.15;;;3.28;;
29120;SDS011;16191;49.548;8.658;2023-05-15T03:41:30;4.32;;;2.70;;
29120;SDS011;16191;49.548;8.658;2023-05-15T03:43:58;3.53;;;2.83;;
29120;SDS011;16191;49.548;8.658;2023-05-15T03:46:25;7.40;;;2.90;;
29120;SDS011;16191;49.548;8.658;2023-05-15T03:48:52;3.38;;;2.80;;
29120;SDS011;16191;49.548;8.658;2023-05-15T03:51:20;5.78;;;2.90;;
29120;SDS011;16191;49.548;8.658;2023-05-15T03:53:47;5.38;;;2.85;;
29120;SDS011;16191;49.548;8.658;2023-05-15T03:56:14;3.95;;;2.80;;
29120;SDS011;16191;49.548;8.658;2023-05-15T03:58:41;4.40;;;2.67;;
29120;SDS011;16191;49.548;8.658;2023-05-15T04:01:07;3.85;;;2.90;;
29120;SDS011;16191;49.548;8.658;2023-05-15T04:03:34;3.92;;;2.95;;
29120;SDS011;16191;49.548;8.658;2023-05-15T04:06:01;3.30;;;2.90;;
29120;SDS011;16191;49.548;8.658;2023-05-15T04:08:27;6.82;;;2.90;;
29120;SDS011;16191;49.548;8.658;2023-05-15T04:10:54;3.88;;;2.88;;
29120;SDS011;16191;49.548;8.658;2023-05-15T04:13:21;5.57;;;3.20;;
29120;SDS011;16191;49.548;8.658;2023-05-15T04:15:47;5.28;;;2.70;;
29120;SDS011;16191;49.548;8.658;2023-05-15T04:18:14;3.97;;;2.78;;
29120;SDS011;16191;49.548;8.658;2023-05-15T04:20:40;5.00;;;3.05;;
29120;SDS011;16191;49.548;8.658;2023-05-15T04:23:07;3.50;;;2.78;;
29120;SDS011;16191;49.548;8.658;2023-05-15T04:25:33;4.88;;;2.72;;
29120;SDS011;16191;49.548;8.658;2023-05-15T04:28:00;3.28;;;2.85;;
29120;SDS011;16191;49.548;8.658;2023-05-15T04:30:26;4.80;;;2.97;;
29120;SDS011;16191;49.548;8.658;2023-05-15T04:32:53;3.47;;;2.75;;
29120;SDS011;16191;49.548;8.658;2023-05-15T04:35:19;3.67;;;3.08;;
29120;SDS011;16191;49.548;8.658;2023-05-15T04:37:46;4.63;;;2.60;;
29120;SDS011;16191;49.548;8.658;2023-05-15T04:40:12;7.97;;;2.88;;
29120;SDS011;16191;49.548;8.658;2023-05-15T04:42:42;8.00;;;2.88;;
29120;SDS011;16191;49.548;8.658;2023-05-15T04:45:08;6.55;;;2.92;;
29120;SDS011;16191;49.548;8.658;2023-05-15T04:47:36;3.65;;;2.90;;
29120;SDS011;16191;49.548;8.658;2023-05-15T04:50:03;4.15;;;3.10;;
29120;SDS011;16191;49.548;8.658;2023-05-15T04:52:29;3.60;;;2.97;;
29120;SDS011;16191;49.548;8.658;2023-05-15T04:54:57;8.20;;;3.40;;
29120;SDS011;16191;49.548;8.658;2023-05-15T04:57:24;3.88;;;3.30;;
29120;SDS011;16191;49.548;8.658;2023-05-15T04:59:51;5.65;;;3.35;;
29120;SDS011;16191;49.548;8.658;2023-05-15T05:02:21;7.15;;;2.78;;
29120;SDS011;16191;49.548;8.658;2023-05-15T05:04:48;3.70;;;3.00;;
29120;SDS011;16191;49.548;8.658;2023-05-15T05:07:15;6.05;;;2.60;;
29120;SDS011;16191;49.548;8.658;2023-05-15T05:09:41;4.95;;;3.15;;
29120;SDS011;16191;49.548;8.658;2023-05-15T05:12:08;6.60;;;2.92;;
29120;SDS011;16191;49.548;8.658;2023-05-15T05:14:35;3.55;;;2.90;;
29120;SDS011;16191;49.548;8.658;2023-05-15T05:17:02;3.60;;;2.97;;
29120;SDS011;16191;49.548;8.658;2023-05-15T05:19:29;4.38;;;2.90;;
29120;SDS011;16191;49.548;8.658;2023-05-15T05:21:55;6.20;;;3.03;;
29120;SDS011;16191;49.548;8.658;2023-05-15T05:24:23;4.00;;;2.90;;
29120;SDS011;16191;49.548;8.658;2023-05-15T05:26:50;3.50;;;2.72;;
29120;SDS011;16191;49.548;8.658;2023-05-15T05:29:16;3.90;;;3.00;;
29120;SDS011;16191;49.548;8.658;2023-05-15T05:31:44;3.13;;;2.75;;
29120;SDS011;16191;49.548;8.658;2023-05-15T05:34:12;4.13;;;3.00;;
29120;SDS011;16191;49.548;8.658;2023-05-15T05:36:39;7.38;;;2.97;;
29120;SDS011;16191;49.548;8.658;2023-05-15T05:39:05;8.00;;;2.90;;
29120;SDS011;16191;49.548;8.658;2023-05-15T05:41:32;3.35;;;2.95;;
29120;SDS011;16191;49.548;8.658;2023-05-15T05:43:58;3.60;;;2.85;;
29120;SDS011;16191;49.548;8.658;2023-05-15T05:46:25;3.72;;;2.75;;
29120;SDS011;16191;49.548;8.658;2023-05-15T05:48:52;6.85;;;3.25;;
29120;SDS011;16191;49.548;8.658;2023-05-15T05:51:19;3.47;;;2.90;;
29120;SDS011;16191;49.548;8.658;2023-05-15T05:53:46;7.80;;;3.17;;
29120;SDS011;16191;49.548;8.658;2023-05-15T05:56:12;2.78;;;2.55;;
29120;SDS011;16191;49.548;8.658;2023-05-15T05:58:39;4.32;;;2.95;;
29120;SDS011;16191;49.548;8.658;2023-05-15T06:01:06;4.40;;;2.75;;
29120;SDS011;16191;49.548;8.658;2023-05-15T06:03:32;3.72;;;2.92;;
29120;SDS011;16191;49.548;8.658;2023-05-15T06:06:00;3.83;;;2.97;;
29120;SDS011;16191;49.548;8.658;2023-05-15T06:08:27;3.58;;;2.60;;
29120;SDS011;16191;49.548;8.658;2023-05-15T06:10:54;6.03;;;3.42;;
29120;SDS011;16191;49.548;8.658;2023-05-15T06:13:21;3.67;;;2.38;;
29120;SDS011;16191;49.548;8.658;2023-05-15T06:15:48;4.18;;;2.70;;
29120;SDS011;16191;49.548;8.658;2023-05-15T06:18:16;3.33;;;2.80;;
29120;SDS011;16191;49.548;8.658;2023-05-15T06:20:42;4.18;;;2.53;;
29120;SDS011;16191;49.548;8.658;2023-05-15T06:23:09;4.68;;;2.55;;
29120;SDS011;16191;49.548;8.658;2023-05-15T06:25:36;3.85;;;3.03;;
29120;SDS011;16191;49.548;8.658;2023-05-15T06:28:02;4.10;;;3.28;;
29120;SDS011;16191;49.548;8.658;2023-05-15T06:30:29;6.28;;;3.80;;
29120;SDS011;16191;49.548;8.658;2023-05-15T06:32:55;7.50;;;4.22;;
29120;SDS011;16191;49.548;8.658;2023-05-15T06:35:22;5.45;;;3.47;;
29120;SDS011;16191;49.548;8.658;2023-05-15T06:37:51;4.88;;;3.67;;
29120;SDS011;16191;49.548;8.658;2023-05-15T06:40:19;7.90;;;3.78;;
29120;SDS011;16191;49.548;8.658;2023-05-15T06:42:46;13.30;;;4.53;;
29120;SDS011;16191;49.548;8.658;2023-05-15T06:45:13;6.50;;;4.30;;
29120;SDS011;16191;49.548;8.658;2023-05-15T06:47:39;4.82;;;3.85;;
29120;SDS011;16191;49.548;8.658;2023-05-15T06:50:06;8.35;;;4.15;;
29120;SDS011;16191;49.548;8.658;2023-05-15T06:52:32;6.90;;;4.28;;
29120;SDS011;16191;49.548;8.658;2023-05-15T06:54:59;7.88;;;4.97;;
29120;SDS011;16191;49.548;8.658;2023-05-15T06:57:25;6.38;;;3.97;;
29120;SDS011;16191;49.548;8.658;2023-05-15T06:59:52;6.75;;;4.60;;
29120;SDS011;16191;49.548;8.658;2023-05-15T07:02:19;6.35;;;4.18;;
29120;SDS011;16191;49.548;8.658;2023-05-15T07:04:45;7.03;;;4.90;;
29120;SDS011;16191;49.548;8.658;2023-05-15T07:07:12;4.93;;;3.95;;
29120;SDS011;16191;49.548;8.658;2023-05-15T07:09:38;4.95;;;3.90;;
29120;SDS011;16191;49.548;8.658;2023-05-15T07:12:05;6.28;;;4.10;;
29120;SDS011;16191;49.548;8.658;2023-05-15T07:14:32;5.97;;;4.63;;
29120;SDS011;16191;49.548;8.658;2023-05-15T07:16:59;13.52;;;4.88;;
29120;SDS011;16191;49.548;8.658;2023-05-15T07:19:26;4.32;;;3.88;;
29120;SDS011;16191;49.548;8.658;2023-05-15T07:21:53;5.75;;;4.13;;
29120;SDS011;16191;49.548;8.658;2023-05-15T07:24:19;4.68;;;3.92;;
29120;SDS011;16191;49.548;8.658;2023-05-15T07:26:47;5.75;;;3.88;;
29120;SDS011;16191;49.548;8.658;2023-05-15T07:29:24;4.10;;;3.50;;
29120;SDS011;16191;49.548;8.658;2023-05-15T07:31:51;10.13;;;4.03;;
29120;SDS011;16191;49.548;8.658;2023-05-15T07:34:18;3.95;;;3.50;;
29120;SDS011;16191;49.548;8.658;2023-05-15T07:36:45;5.53;;;3.53;;
29120;SDS011;16191;49.548;8.658;2023-05-15T07:39:11;6.22;;;3.40;;
29120;SDS011;16191;49.548;8.658;2023-05-15T07:41:38;6.35;;;3.97;;
29120;SDS011;16191;49.548;8.658;2023-05-15T07:44:05;5.75;;;3.42;;
29120;SDS011;16191;49.548;8.658;2023-05-15T07:46:32;4.53;;;3.50;;
29120;SDS011;16191;49.548;8.658;2023-05-15T07:48:59;6.35;;;3.30;;
29120;SDS011;16191;49.548;8.658;2023-05-15T07:51:26;3.97;;;3.58;;
29120;SDS011;16191;49.548;8.658;2023-05-15T07:53:52;5.07;;;3.58;;
29120;SDS011;16191;49.548;8.658;2023-05-15T07:56:19;4.25;;;3.85;;
29120;SDS011;16191;49.548;8.658;2023-05-15T07:58:46;5.07;;;3.35;;
29120;SDS011;16191;49.548;8.658;2023-05-15T08:01:13;4.88;;;3.85;;
29120;SDS011;16191;49.548;8.658;2023-05-15T08:03:39;9.48;;;4.22;;
29120;SDS011;16191;49.548;8.658;2023-05-15T08:06:06;4.50;;;3.58;;
29120;SDS011;16191;49.548;8.658;2023-05-15T08:08:33;4.50;;;3.47;;
29120;SDS011;16191;49.548;8.658;2023-05-15T08:11:00;5.45;;;3.70;;
29120;SDS011;16191;49.548;8.658;2023-05-15T08:13:26;3.88;;;3.47;;
29120;SDS011;16191;49.548;8.658;2023-05-15T08:15:54;4.10;;;3.00;;
29120;SDS011;16191;49.548;8.658;2023-05-15T08:18:20;3.78;;;2.88;;
29120;SDS011;16191;49.548;8.658;2023-05-15T08:20:48;4.57;;;2.97;;
29120;SDS011;16191;49.548;8.658;2023-05-15T08:23:14;4.20;;;3.33;;
29120;SDS011;16191;49.548;8.658;2023-05-15T08:25:41;3.78;;;3.00;;
29120;SDS011;16191;49.548;8.658;2023-05-15T08:28:08;4.25;;;2.70;;
29120;SDS011;16191;49.548;8.658;2023-05-15T08:30:36;3.78;;;2.85;;
29120;SDS011;16191;49.548;8.658;2023-05-15T08:33:02;3.97;;;2.50;;
29120;SDS011;16191;49.548;8.658;2023-05-15T08:35:29;3.00;;;2.70;;
29120;SDS011;16191;49.548;8.658;2023-05-15T08:37:56;5.35;;;2.65;;
29120;SDS011;16191;49.548;8.658;2023-05-15T08:40:23;3.17;;;2.60;;
29120;SDS011;16191;49.548;8.658;2023-05-15T08:43:07;4.75;;;2.97;;
29120;SDS011;16191;49.548;8.658;2023-05-15T08:45:40;4.65;;;2.70;;
29120;SDS011;16191;49.548;8.658;2023-05-15T08:48:09;3.03;;;2.50;;
29120;SDS011;16191;49.548;8.658;2023-05-15T08:50:38;4.53;;;2.60;;
29120;SDS011;16191;49.548;8.658;2023-05-15T08:53:06;3.47;;;2.60;;
29120;SDS011;16191;49.548;8.658;2023-05-15T08:55:33;5.53;;;3.17;;
29120;SDS011;16191;49.548;8.658;2023-05-15T08:58:00;3.55;;;3.13;;
29120;SDS011;16191;49.548;8.658;2023-05-15T09:00:27;4.65;;;3.00;;
29120;SDS011;16191;49.548;8.658;2023-05-15T09:02:54;5.25;;;3.40;;
29120;SDS011;16191;49.548;8.658;2023-05-15T09:05:20;5.13;;;3.25;;
29120;SDS011;16191;49.548;8.658;2023-05-15T09:07:47;3.92;;;2.95;;
29120;SDS011;16191;49.548;8.658;2023-05-15T09:10:14;4.65;;;3.10;;
29120;SDS011;16191;49.548;8.658;2023-05-15T09:12:42;7.30;;;3.50;;
29120;SDS011;16191;49.548;8.658;2023-05-15T09:15:13;4.90;;;3.28;;
29120;SDS011;16191;49.548;8.658;2023-05-15T09:17:43;4.07;;;3.35;;
29120;SDS011;16191;49.548;8.658;2023-05-15T09:20:23;8.13;;;3.45;;
29120;SDS011;16191;49.548;8.658;2023-05-15T09:22:55;8.05;;;3.58;;
29120;SDS011;16191;49.548;8.658;2023-05-15T09:25:32;8.45;;;4.18;;
29120;SDS011;16191;49.548;8.658;2023-05-15T09:28:08;4.93;;;3.63;;
29120;SDS011;16191;49.548;8.658;2023-05-15T09:30:40;8.10;;;4.65;;
29120;SDS011;16191;49.548;8.658;2023-05-15T09:33:08;8.98;;;4.10;;
29120;SDS011;16191;49.548;8.658;2023-05-15T09:35:35;5.75;;;4.45;;
29120;SDS011;16191;49.548;8.658;2023-05-15T09:38:10;8.10;;;4.90;;
29120;SDS011;16191;49.548;8.658;2023-05-15T09:40:38;5.65;;;4.35;;
29120;SDS011;16191;49.548;8.658;2023-05-15T09:43:08;9.50;;;4.68;;
29120;SDS011;16191;49.548;8.658;2023-05-15T09:45:38;7.68;;;4.75;;
29120;SDS011;16191;49.548;8.658;2023-05-15T09:48:05;7.18;;;5.40;;
29120;SDS011;16191;49.548;8.658;2023-05-15T09:50:34;7.13;;;5.10;;
29120;SDS011;16191;49.548;8.658;2023-05-15T09:53:01;7.47;;;5.43;;
29120;SDS011;16191;49.548;8.658;2023-05-15T09:55:30;6.90;;;5.03;;
29120;SDS011;16191;49.548;8.658;2023-05-15T09:58:08;7.13;;;5.22;;
29120;SDS011;16191;49.548;8.658;2023-05-15T10:00:40;7.60;;;4.53;;
29120;SDS011;16191;49.548;8.658;2023-05-15T10:03:15;9.02;;;4.85;;
29120;SDS011;16191;49.548;8.658;2023-05-15T10:05:43;8.37;;;5.93;;
29120;SDS011;16191;49.548;8.658;2023-05-15T10:08:10;13.70;;;5.60;;
29120;SDS011;16191;49.548;8.658;2023-05-15T10:10:37;11.38;;;5.50;;
29120;SDS011;16191;49.548;8.658;2023-05-15T10:13:04;7.53;;;6.53;;
29120;SDS011;16191;49.548;8.658;2023-05-15T10:15:33;9.80;;;6.78;;
29120;SDS011;16191;49.548;8.658;2023-05-15T10:18:00;10.50;;;7.85;;
29120;SDS011;16191;49.548;8.658;2023-05-15T10:20:29;16.42;;;7.28;;
29120;SDS011;16191;49.548;8.658;2023-05-15T10:22:57;9.88;;;6.88;;
29120;SDS011;16191;49.548;8.658;2023-05-15T10:25:41;10.07;;;7.28;;
29120;SDS011;16191;49.548;8.658;2023-05-15T10:28:13;11.88;;;9.45;;
29120;SDS011;16191;49.548;8.658;2023-05-15T10:30:41;12.20;;;7.63;;
29120;SDS011;16191;49.548;8.658;2023-05-15T10:33:08;12.85;;;9.02;;
29120;SDS011;16191;49.548;8.658;2023-05-15T10:35:37;13.05;;;9.20;;
29120;SDS011;16191;49.548;8.658;2023-05-15T10:38:05;12.73;;;9.70;;
29120;SDS011;16191;49.548;8.658;2023-05-15T10:40:32;17.50;;;10.95;;
29120;SDS011;16191;49.548;8.658;2023-05-15T10:43:02;12.85;;;9.65;;
29120;SDS011;16191;49.548;8.658;2023-05-15T10:45:30;12.20;;;9.63;;
29120;SDS011;16191;49.548;8.658;2023-05-15T10:47:57;15.77;;;9.70;;
29120;SDS011;16191;49.548;8.658;2023-05-15T10:50:25;16.30;;;10.50;;
29120;SDS011;16191;49.548;8.658;2023-05-15T10:52:52;8.30;;;5.93;;
29120;SDS011;16191;49.548;8.658;2023-05-15T10:55:21;9.18;;;6.65;;
29120;SDS011;16191;49.548;8.658;2023-05-15T10:57:48;10.65;;;8.07;;
29120;SDS011;16191;49.548;8.658;2023-05-15T11:02:47;8.50;;;5.43;;
29120;SDS011;16191;49.548;8.658;2023-05-15T11:05:14;6.90;;;3.90;;
29120;SDS011;16191;49.548;8.658;2023-05-15T11:07:40;4.97;;;3.58;;
29120;SDS011;16191;49.548;8.658;2023-05-15T11:12:59;6.15;;;2.83;;
29120;SDS011;16191;49.548;8.658;2023-05-15T11:15:30;16.08;;;4.13;;
29120;SDS011;16191;49.548;8.658;2023-05-15T11:18:07;6.45;;;3.10;;
29120;SDS011;16191;49.548;8.658;2023-05-15T11:23:27;4.40;;;3.40;;
29120;SDS011;16191;49.548;8.658;2023-05-15T11:25:57;8.02;;;4.30;;
29120;SDS011;16191;49.548;8.658;2023-05-15T11:28:24;8.57;;;4.82;;
29120;SDS011;16191;49.548;8.658;2023-05-15T11:30:51;9.38;;;5.20;;
29120;SDS011;16191;49.548;8.658;2023-05-15T11:33:20;5.45;;;4.22;;
29120;SDS011;16191;49.548;8.658;2023-05-15T11:35:46;9.13;;;5.30;;
29120;SDS011;16191;49.548;8.658;2023-05-15T11:38:14;6.93;;;4.97;;
29120;SDS011;16191;49.548;8.658;2023-05-15T11:40:43;12.05;;;3.95;;
29120;SDS011;16191;49.548;8.658;2023-05-15T11:45:50;5.65;;;4.60;;
29120;SDS011;16191;49.548;8.658;2023-05-15T11:48:21;6.38;;;4.05;;
29120;SDS011;16191;49.548;8.658;2023-05-15T11:50:49;6.28;;;4.30;;
29120;SDS011;16191;49.548;8.658;2023-05-15T11:53:19;7.45;;;4.00;;
29120;SDS011;16191;49.548;8.658;2023-05-15T11:55:47;6.43;;;3.83;;
29120;SDS011;16191;49.548;8.658;2023-05-15T11:58:17;6.10;;;4.15;;
29120;SDS011;16191;49.548;8.658;2023-05-15T12:00:45;8.40;;;4.85;;
29120;SDS011;16191;49.548;8.658;2023-05-15T12:03:32;10.82;;;4.55;;
29120;SDS011;16191;49.548;8.658;2023-05-15T12:06:00;9.25;;;5.03;;
29120;SDS011;16191;49.548;8.658;2023-05-15T12:08:31;7.85;;;4.68;;
29120;SDS011;16191;49.548;8.658;2023-05-15T12:10:59;7.10;;;5.65;;
29120;SDS011;16191;49.548;8.658;2023-05-15T12:13:26;10.13;;;7.43;;
29120;SDS011;16191;49.548;8.658;2023-05-15T12:15:53;16.77;;;9.45;;
29120;SDS011;16191;49.548;8.658;2023-05-15T12:18:20;9.30;;;8.00;;
29120;SDS011;16191;49.548;8.658;2023-05-15T12:20:49;10.88;;;9.10;;
29120;SDS011;16191;49.548;8.658;2023-05-15T12:23:19;18.20;;;10.32;;
29120;SDS011;16191;49.548;8.658;2023-05-15T12:25:47;20.00;;;9.77;;
29120;SDS011;16191;49.548;8.658;2023-05-15T12:28:16;16.97;;;11.40;;
29120;SDS011;16191;49.548;8.658;2023-05-15T12:30:43;14.13;;;9.60;;
29120;SDS011;16191;49.548;8.658;2023-05-15T12:33:10;15.80;;;9.75;;
29120;SDS011;16191;49.548;8.658;2023-05-15T12:35:41;13.60;;;9.57;;
29120;SDS011;16191;49.548;8.658;2023-05-15T12:38:13;13.68;;;7.93;;
29120;SDS011;16191;49.548;8.658;2023-05-15T12:40:41;18.80;;;7.65;;
29120;SDS011;16191;49.548;8.658;2023-05-15T12:43:09;9.30;;;6.30;;
29120;SDS011;16191;49.548;8.658;2023-05-15T12:45:39;8.63;;;5.38;;
29120;SDS011;16191;49.548;8.658;2023-05-15T12:48:06;11.38;;;6.43;;
29120;SDS011;16191;49.548;8.658;2023-05-15T12:50:39;10.73;;;6.72;;
29120;SDS011;16191;49.548;8.658;2023-05-15T12:53:11;13.95;;;6.20;;
29120;SDS011;16191;49.548;8.658;2023-05-15T12:55:38;7.75;;;5.80;;
29120;SDS011;16191;49.548;8.658;2023-05-15T12:58:06;13.85;;;6.38;;
29120;SDS011;16191;49.548;8.658;2023-05-15T13:00:34;8.88;;;5.88;;
29120;SDS011;16191;49.548;8.658;2023-05-15T13:03:02;10.38;;;5.40;;
29120;SDS011;16191;49.548;8.658;2023-05-15T13:05:30;9.38;;;5.57;;
29120;SDS011;16191;49.548;8.658;2023-05-15T13:07:58;14.10;;;6.40;;
29120;SDS011;16191;49.548;8.658;2023-05-15T13:10:28;7.57;;;5.78;;
29120;SDS011;16191;49.548;8.658;2023-05-15T13:12:57;12.32;;;6.05;;
29120;SDS011;16191;49.548;8.658;2023-05-15T13:15:41;15.00;;;5.78;;
29120;SDS011;16191;49.548;8.658;2023-05-15T13:18:09;6.50;;;4.28;;
29120;SDS011;16191;49.548;8.658;2023-05-15T13:20:44;6.82;;;4.60;;
29120;SDS011;16191;49.548;8.658;2023-05-15T13:23:16;6.57;;;4.82;;
29120;SDS011;16191;49.548;8.658;2023-05-15T13:25:44;9.23;;;5.70;;
29120;SDS011;16191;49.548;8.658;2023-05-15T13:28:11;12.77;;;5.85;;
29120;SDS011;16191;49.548;8.658;2023-05-15T13:30:39;10.07;;;6.30;;
29120;SDS011;16191;49.548;8.658;2023-05-15T13:33:10;12.27;;;5.70;;
29120;SDS011;16191;49.548;8.658;2023-05-15T13:35:38;10.15;;;6.03;;
29120;SDS011;16191;49.548;8.658;2023-05-15T13:38:06;6.72;;;5.32;;
29120;SDS011;16191;49.548;8.658;2023-05-15T13:40:36;8.23;;;5.20;;
29120;SDS011;16191;49.548;8.658;2023-05-15T13:43:03;8.32;;;4.85;;
29120;SDS011;16191;49.548;8.658;2023-05-15T13:45:31;9.60;;;5.28;;
29120;SDS011;16191;49.548;8.658;2023-05-15T13:47:58;9.80;;;3.90;;
29120;SDS011;16191;49.548;8.658;2023-05-15T13:50:25;8.70;;;4.18;;
29120;SDS011;16191;49.548;8.658;2023-05-15T13:52:51;9.43;;;4.88;;
29120;SDS011;16191;49.548;8.658;2023-05-15T13:55:19;7.82;;;5.38;;
29120;SDS011;16191;49.548;8.658;2023-05-15T13:57:48;10.80;;;6.45;;
29120;SDS011;16191;49.548;8.658;2023-05-15T14:00:15;7.70;;;5.40;;
29120;SDS011;16191;49.548;8.658;2023-05-15T14:02:43;13.25;;;5.85;;
29120;SDS011;16191;49.548;8.658;2023-05-15T14:05:10;7.07;;;5.00;;
29120;SDS011;16191;49.548;8.658;2023-05-15T14:07:39;8.55;;;5.38;;
29120;SDS011;16191;49.548;8.658;2023-05-15T14:10:07;7.15;;;3.55;;
29120;SDS011;16191;49.548;8.658;2023-05-15T14:12:34;4.13;;;3.60;;
29120;SDS011;16191;49.548;8.658;2023-05-15T14:15:01;5.30;;;3.53;;
29120;SDS011;16191;49.548;8.658;2023-05-15T14:17:28;6.95;;;3.13;;
29120;SDS011;16191;49.548;8.658;2023-05-15T14:19:54;6.95;;;3.38;;
29120;SDS011;16191;49.548;8.658;2023-05-15T14:22:21;4.57;;;3.10;;
29120;SDS011;16191;49.548;8.658;2023-05-15T14:24:50;3.85;;;3.22;;
29120;SDS011;16191;49.548;8.658;2023-05-15T14:27:17;4.95;;;3.17;;
29120;SDS011;16191;49.548;8.658;2023-05-15T14:29:44;4.97;;;3.40;;
29120;SDS011;16191;49.548;8.658;2023-05-15T14:32:11;7.60;;;3.53;;
29120;SDS011;16191;49.548;8.658;2023-05-15T14:34:37;5.63;;;3.58;;
29120;SDS011;16191;49.548;8.658;2023-05-15T14:37:04;6.07;;;3.25;;
29120;SDS011;16191;49.548;8.658;2023-05-15T14:39:30;5.78;;;3.35;;
29120;SDS011;16191;49.548;8.658;2023-05-15T14:42:00;6.18;;;4.07;;
29120;SDS011;16191;49.548;8.658;2023-05-15T14:44:27;5.68;;;3.95;;
29120;SDS011;16191;49.548;8.658;2023-05-15T14:47:09;4.63;;;3.70;;
29120;SDS011;16191;49.548;8.658;2023-05-15T14:49:39;6.85;;;4.28;;
29120;SDS011;16191;49.548;8.658;2023-05-15T14:52:07;6.57;;;3.80;;
29120;SDS011;16191;49.548;8.658;2023-05-15T14:54:35;7.80;;;3.60;;
29120;SDS011;16191;49.548;8.658;2023-05-15T14:57:02;7.32;;;3.17;;
29120;SDS011;16191;49.548;8.658;2023-05-15T14:59:29;5.47;;;3.72;;
29120;SDS011;16191;49.548;8.658;2023-05-15T15:01:55;4.57;;;3.70;;
29120;SDS011;16191;49.548;8.658;2023-05-15T15:04:22;6.53;;;4.20;;
29120;SDS011;16191;49.548;8.658;2023-05-15T15:06:49;5.35;;;3.92;;
29120;SDS011;16191;49.548;8.658;2023-05-15T15:09:15;8.77;;;3.85;;
29120;SDS011;16191;49.548;8.658;2023-05-15T15:11:46;5.82;;;3.40;;
29120;SDS011;16191;49.548;8.658;2023-05-15T15:14:12;7.13;;;4.10;;
29120;SDS011;16191;49.548;8.658;2023-05-15T15:16:39;6.15;;;3.70;;
29120;SDS011;16191;49.548;8.658;2023-05-15T15:19:06;5.05;;;3.88;;
29120;SDS011;16191;49.548;8.658;2023-05-15T15:21:32;5.85;;;4.50;;
29120;SDS011;16191;49.548;8.658;2023-05-15T15:23:59;7.40;;;5.18;;
29120;SDS011;16191;49.548;8.658;2023-05-15T15:26:26;8.10;;;5.32;;